Time;durP1;ratioP1;P1;durP2;ratioP2;P2;SDS_P1;SDS_P2;PMS_P1;PMS_P2;Temp;Humidity;BMP_temperature;BMP_pressure;BME280_temperature;BME280_humidity;BME280_pressure;Samples;Min_cycle;Max_cycle;Signal;HPM_P1;HPM_P2
2023/03/23 00:02:12;;;;;;;12.00;10.05;;;10.60;99.90;;;;;;4983293;28;20434;-80
2023/03/23 00:04:38;;;;;;;10.63;9.10;;;10.60;99.90;;;;;;4969086;28;20761;-80
2023/03/23 00:07:03;;;;;;;11.37;10.20;;;10.80;99.90;;;;;;4986852;28;20435;-79
2023/03/23 00:09:29;;;;;;;12.37;11.17;;;10.70;99.90;;;;;;4987198;28;20497;-80
2023/03/23 00:11:56;;;;;;;11.95;10.85;;;10.80;99.90;;;;;;4967473;28;20436;-77
2023/03/23 00:14:23;;;;;;;14.00;12.60;;;10.80;99.90;;;;;;4985093;28;20426;-79
2023/03/23 00:16:50;;;;;;;16.08;14.38;;;10.80;99.90;;;;;;4985724;28;20470;-79
2023/03/23 00:19:19;;;;;;;17.13;15.35;;;10.80;99.90;;;;;;4985167;28;20509;-81
2023/03/23 00:21:45;;;;;;;17.45;14.15;;;10.90;99.90;;;;;;4985047;28;20481;-79
2023/03/23 00:24:17;;;;;;;17.00;14.95;;;10.80;99.90;;;;;;4979195;28;20441;-79
2023/03/23 00:26:48;;;;;;;17.45;15.25;;;10.80;99.90;;;;;;4986902;28;20442;-80
2023/03/23 00:29:21;;;;;;;17.45;15.18;;;10.90;99.90;;;;;;4984291;28;20458;-80
2023/03/23 00:31:47;;;;;;;16.23;14.43;;;11.00;99.90;;;;;;4985776;28;20434;-80
2023/03/23 00:34:19;;;;;;;15.20;13.60;;;11.00;99.90;;;;;;4984509;28;20929;-78
2023/03/23 00:36:50;;;;;;;15.93;14.23;;;11.00;99.90;;;;;;4987394;28;20465;-80
2023/03/23 00:39:16;;;;;;;14.55;11.60;;;11.00;99.90;;;;;;4986230;28;20484;-81
2023/03/23 00:41:46;;;;;;;11.93;9.38;;;11.10;99.90;;;;;;4985283;28;20454;-81
2023/03/23 00:44:19;;;;;;;8.88;6.85;;;11.10;99.90;;;;;;4984619;28;20508;-79
2023/03/23 00:46:49;;;;;;;5.78;4.10;;;10.90;99.90;;;;;;4987299;28;20406;-80
2023/03/23 00:49:17;;;;;;;9.90;3.90;;;10.80;99.90;;;;;;4983025;28;20434;-80
2023/03/23 00:51:44;;;;;;;3.58;2.67;;;10.80;99.90;;;;;;4988639;28;20438;-80
2023/03/23 00:54:10;;;;;;;5.45;2.90;;;10.60;99.90;;;;;;4987883;28;20507;-80
2023/03/23 00:56:38;;;;;;;3.90;2.35;;;10.60;99.90;;;;;;4988553;28;21000;-81
2023/03/23 00:59:04;;;;;;;4.70;3.03;;;10.60;99.90;;;;;;4989728;28;20435;-81
2023/03/23 01:01:30;;;;;;;3.22;2.17;;;10.60;99.90;;;;;;4990741;28;20419;-78
2023/03/23 01:04:00;;;;;;;3.83;2.28;;;10.60;99.90;;;;;;4990761;28;20730;-81
2023/03/23 01:06:27;;;;;;;5.32;2.15;;;10.50;99.90;;;;;;4989997;28;20427;-81
2023/03/23 01:08:53;;;;;;;4.18;2.47;;;10.50;99.90;;;;;;4991177;28;20422;-80
2023/03/23 01:11:20;;;;;;;5.22;2.97;;;10.50;99.90;;;;;;4989596;28;21007;-83
2023/03/23 01:13:46;;;;;;;4.15;3.22;;;10.50;99.90;;;;;;4991178;28;20495;-81
2023/03/23 01:16:12;;;;;;;4.35;3.85;;;10.50;99.90;;;;;;4989511;28;20406;-82
2023/03/23 01:18:38;;;;;;;8.82;4.57;;;10.50;99.90;;;;;;4990631;28;20414;-80
2023/03/23 01:21:13;;;;;;;8.63;5.05;;;10.60;99.90;;;;;;4986251;28;20512;-81
2023/03/23 01:23:39;;;;;;;7.25;5.88;;;10.60;99.90;;;;;;4991134;28;20414;-80
2023/03/23 01:26:07;;;;;;;9.90;6.38;;;10.70;99.90;;;;;;4990482;28;20496;-82
2023/03/23 01:28:33;;;;;;;8.38;7.13;;;10.90;99.90;;;;;;4990111;28;20418;-80
2023/03/23 01:31:01;;;;;;;15.60;7.87;;;10.80;99.90;;;;;;5003214;28;20426;-79
2023/03/23 01:33:27;;;;;;;9.40;6.85;;;10.80;99.90;;;;;;5018089;28;20444;-80
2023/03/23 01:35:53;;;;;;;10.27;7.72;;;10.80;99.90;;;;;;4989609;28;21363;-80
2023/03/23 01:38:19;;;;;;;13.85;7.78;;;10.90;99.90;;;;;;4988946;28;20426;-80
2023/03/23 01:40:44;;;;;;;10.40;7.22;;;11.00;99.90;;;;;;4972014;28;20426;-80
2023/03/23 01:43:15;;;;;;;10.60;6.88;;;11.10;99.90;;;;;;4987818;28;21025;-79
2023/03/23 01:45:41;;;;;;;11.30;7.20;;;11.00;99.90;;;;;;4989715;28;20418;-77
2023/03/23 01:48:20;;;;;;;11.33;6.70;;;11.10;99.90;;;;;;4988430;28;20449;-78
2023/03/23 01:51:03;;;;;;;12.18;7.50;;;11.10;99.90;;;;;;5007067;28;20511;-78
2023/03/23 01:53:38;;;;;;;12.03;7.03;;;11.10;99.90;;;;;;4986537;28;20434;-79
2023/03/23 01:56:04;;;;;;;9.82;6.20;;;11.10;99.90;;;;;;4987638;28;20429;-80
2023/03/23 01:58:33;;;;;;;9.68;6.15;;;11.20;99.90;;;;;;4989048;28;20444;-79
2023/03/23 02:01:03;;;;;;;13.27;5.75;;;11.20;99.90;;;;;;4988887;28;20852;-82
2023/03/23 02:03:31;;;;;;;11.52;6.38;;;11.20;99.90;;;;;;4988179;28;20480;-80
2023/03/23 02:06:00;;;;;;;11.32;5.90;;;11.20;99.90;;;;;;4988756;28;20527;-83
2023/03/23 02:08:28;;;;;;;7.95;5.63;;;11.20;99.90;;;;;;5020558;28;20453;-78
2023/03/23 02:10:54;;;;;;;9.68;6.07;;;11.20;99.90;;;;;;5018922;28;20434;-79
2023/03/23 02:13:20;;;;;;;8.15;5.57;;;11.20;99.90;;;;;;4987505;28;20434;-77
2023/03/23 02:16:05;;;;;;;10.25;5.72;;;11.20;99.90;;;;;;4987106;28;20513;-79
2023/03/23 02:18:39;;;;;;;8.35;5.32;;;11.20;99.90;;;;;;4985338;28;20532;-80
2023/03/23 02:21:16;;;;;;;10.77;5.55;;;11.20;99.90;;;;;;4985274;28;20441;-79
2023/03/23 02:24:16;;;;;;;8.10;5.40;;;11.20;99.90;;;;;;4988065;28;20498;-81
2023/03/23 02:26:56;;;;;;;10.55;6.05;;;11.20;99.90;;;;;;4986537;28;20430;-80
2023/03/23 02:29:50;;;;;;;7.97;5.15;;;11.30;99.90;;;;;;4988503;28;20943;-77
2023/03/23 02:32:54;;;;;;;8.18;5.47;;;11.20;99.90;;;;;;4984939;28;20925;-81
2023/03/23 02:35:29;;;;;;;7.60;4.90;;;11.20;99.90;;;;;;4976491;28;20437;-79
2023/03/23 02:38:23;;;;;;;8.57;5.00;;;11.10;99.90;;;;;;4986652;28;20470;-78
2023/03/23 02:40:50;;;;;;;8.35;5.18;;;11.10;99.90;;;;;;4986290;28;20531;-79
2023/03/23 02:43:24;;;;;;;10.32;5.95;;;11.20;99.90;;;;;;4987019;28;20944;-80
2023/03/23 02:45:51;;;;;;;9.00;5.38;;;11.20;99.90;;;;;;4987578;28;20426;-81
2023/03/23 02:48:22;;;;;;;8.57;5.32;;;11.20;99.90;;;;;;5018554;28;20437;-80
2023/03/23 02:50:51;;;;;;;7.53;4.50;;;11.20;99.90;;;;;;5019160;28;20426;-81
2023/03/23 02:53:21;;;;;;;7.57;5.32;;;11.20;99.90;;;;;;4985711;28;20492;-79
2023/03/23 02:55:48;;;;;;;8.00;4.88;;;11.20;99.90;;;;;;5019607;28;20449;-80
2023/03/23 02:58:14;;;;;;;11.25;4.85;;;11.20;99.90;;;;;;4985730;28;20532;-79
2023/03/23 03:00:41;;;;;;;8.63;5.07;;;11.10;99.90;;;;;;4987988;28;20414;-79
2023/03/23 03:03:14;;;;;;;7.47;4.57;;;11.20;99.90;;;;;;4987516;28;20913;-80
2023/03/23 03:06:00;;;;;;;9.52;4.57;;;11.20;99.90;;;;;;4986559;28;20421;-82
2023/03/23 03:08:35;;;;;;;8.73;4.83;;;11.20;99.90;;;;;;4998520;28;20426;-80
2023/03/23 03:11:00;;;;;;;7.00;4.30;;;11.20;99.90;;;;;;5004789;28;20534;-78
2023/03/23 03:13:31;;;;;;;6.15;4.00;;;11.20;99.90;;;;;;4986176;28;20519;-79
2023/03/23 03:16:07;;;;;;;7.80;4.68;;;11.20;99.90;;;;;;5003761;28;20418;-79
2023/03/23 03:18:59;;;;;;;7.07;4.10;;;11.20;99.90;;;;;;5002556;28;20952;-82
2023/03/23 03:21:28;;;;;;;7.68;4.03;;;11.20;99.90;;;;;;4983813;28;20470;-81
2023/03/23 03:23:58;;;;;;;8.65;4.68;;;11.20;99.90;;;;;;4988060;28;20465;-80
2023/03/23 03:26:26;;;;;;;9.25;4.18;;;11.20;99.90;;;;;;5019704;28;20464;-78
2023/03/23 03:28:52;;;;;;;7.63;4.20;;;11.20;99.90;;;;;;4989001;28;20426;-77
2023/03/23 03:31:22;;;;;;;5.65;4.15;;;11.20;99.90;;;;;;4988921;28;20847;-78
2023/03/23 03:33:48;;;;;;;6.82;3.88;;;11.20;99.90;;;;;;4987826;28;20430;-79
2023/03/23 03:36:24;;;;;;;8.52;4.18;;;11.20;99.90;;;;;;4987092;28;20426;-81
2023/03/23 03:38:51;;;;;;;9.57;4.43;;;11.10;99.90;;;;;;4986489;28;20441;-80
2023/03/23 03:41:19;;;;;;;7.32;4.32;;;11.00;99.90;;;;;;4987136;28;20781;-80
2023/03/23 03:43:45;;;;;;;9.23;4.30;;;11.10;99.90;;;;;;4985160;28;20431;-82
2023/03/23 03:46:11;;;;;;;8.90;4.75;;;11.10;99.90;;;;;;4986927;28;20554;-80
2023/03/23 03:48:36;;;;;;;9.55;4.75;;;11.00;99.90;;;;;;4986511;28;20529;-81
2023/03/23 03:51:02;;;;;;;14.20;6.25;;;11.00;99.90;;;;;;4987007;28;20437;-80
2023/03/23 03:53:28;;;;;;;8.10;5.25;;;11.10;99.90;;;;;;5016850;28;20448;-79
2023/03/23 03:55:59;;;;;;;6.85;4.45;;;10.90;99.90;;;;;;4987522;28;20781;-81
2023/03/23 03:58:31;;;;;;;7.25;4.68;;;11.00;99.90;;;;;;4986650;28;20496;-80
2023/03/23 04:00:58;;;;;;;8.50;3.13;;;10.90;99.90;;;;;;5003029;28;20841;-78
2023/03/23 04:03:25;;;;;;;7.67;3.67;;;10.80;99.90;;;;;;4984280;28;20982;-80
2023/03/23 04:05:51;;;;;;;6.53;3.10;;;10.70;99.90;;;;;;4968809;28;20426;-79
2023/03/23 04:08:17;;;;;;;14.77;4.60;;;10.70;99.90;;;;;;4969637;28;20432;-79
2023/03/23 04:10:43;;;;;;;8.15;3.40;;;10.60;99.90;;;;;;5018767;28;20426;-79
2023/03/23 04:13:09;;;;;;;6.53;3.23;;;10.60;99.90;;;;;;5001659;28;20445;-78
2023/03/23 04:15:35;;;;;;;11.67;4.80;;;10.60;99.90;;;;;;5020207;28;20775;-78
2023/03/23 04:18:00;;;;;;;7.83;3.60;;;10.60;99.90;;;;;;4987484;28;20440;-80
2023/03/23 04:20:26;;;;;;;7.90;3.50;;;10.60;99.90;;;;;;4986157;28;20933;-78
2023/03/23 04:22:54;;;;;;;7.25;3.50;;;10.50;99.90;;;;;;4987447;28;20426;-78
2023/03/23 04:25:20;;;;;;;5.78;3.80;;;10.50;99.90;;;;;;4986862;28;20440;-82
2023/03/23 04:27:52;;;;;;;8.07;3.53;;;10.60;99.90;;;;;;4991796;28;20441;-79
2023/03/23 04:30:21;;;;;;;8.30;4.07;;;10.50;99.90;;;;;;4975545;28;20434;-78
2023/03/23 04:32:50;;;;;;;7.15;2.58;;;10.50;99.90;;;;;;4992992;28;20445;-81
2023/03/23 04:35:17;;;;;;;5.25;2.03;;;10.30;99.90;;;;;;4978265;28;20857;-78
2023/03/23 04:37:43;;;;;;;7.47;2.00;;;10.30;99.90;;;;;;5006284;28;20443;-79
2023/03/23 04:40:12;;;;;;;6.83;2.17;;;10.20;99.90;;;;;;4980753;28;20576;-79
2023/03/23 04:42:39;;;;;;;7.43;2.10;;;10.20;99.90;;;;;;4985915;28;20430;-80
2023/03/23 04:45:07;;;;;;;8.15;2.92;;;10.20;99.90;;;;;;4992588;28;20441;-78
2023/03/23 04:47:39;;;;;;;9.13;2.13;;;10.20;99.90;;;;;;4974796;28;20502;-78
2023/03/23 04:50:11;;;;;;;6.53;2.55;;;10.20;99.90;;;;;;4992020;28;20410;-79
2023/03/23 04:52:40;;;;;;;7.53;2.80;;;10.20;99.90;;;;;;4981372;28;20436;-78
2023/03/23 04:55:07;;;;;;;8.52;3.30;;;10.30;99.90;;;;;;4992888;28;20461;-80
2023/03/23 04:57:34;;;;;;;9.35;3.60;;;10.30;99.90;;;;;;4992541;28;20746;-81
2023/03/23 05:00:04;;;;;;;10.98;3.72;;;10.30;99.90;;;;;;4992990;28;20414;-80
2023/03/23 05:02:30;;;;;;;10.37;4.03;;;10.40;99.90;;;;;;4990247;28;20820;-78
2023/03/23 05:04:57;;;;;;;11.57;3.83;;;10.40;99.90;;;;;;4989674;28;20403;-79
2023/03/23 05:07:23;;;;;;;9.43;3.70;;;10.40;99.90;;;;;;4990158;28;20458;-79
2023/03/23 05:09:49;;;;;;;11.03;3.87;;;10.40;99.90;;;;;;4991865;28;20457;-80
2023/03/23 05:12:15;;;;;;;12.40;4.38;;;10.40;99.90;;;;;;5003735;28;20445;-78
2023/03/23 05:14:41;;;;;;;10.88;3.70;;;10.40;99.90;;;;;;4989212;28;20423;-78
2023/03/23 05:17:08;;;;;;;13.65;3.70;;;10.40;99.90;;;;;;4989215;28;20430;-80
2023/03/23 05:19:35;;;;;;;12.85;4.38;;;10.40;99.90;;;;;;4972947;28;20411;-82
2023/03/23 05:22:02;;;;;;;19.73;4.88;;;10.30;99.90;;;;;;4986245;28;20436;-81
2023/03/23 05:24:31;;;;;;;25.88;13.27;;;10.30;99.90;;;;;;4989452;28;20449;-79
2023/03/23 05:26:57;;;;;;;21.17;4.90;;;10.30;99.90;;;;;;5005965;28;20418;-78
2023/03/23 05:29:23;;;;;;;17.70;3.70;;;10.30;99.90;;;;;;4989324;28;20944;-80
2023/03/23 05:31:49;;;;;;;19.83;4.65;;;10.20;99.90;;;;;;4988543;28;20742;-80
2023/03/23 05:34:15;;;;;;;21.55;5.18;;;10.20;99.90;;;;;;4987787;28;20454;-78
2023/03/23 05:36:43;;;;;;;22.33;4.45;;;10.20;99.90;;;;;;5021518;28;20431;-79
2023/03/23 05:39:10;;;;;;;24.52;4.88;;;10.20;99.90;;;;;;5019151;28;20450;-77
2023/03/23 05:41:37;;;;;;;24.10;6.72;;;10.30;99.90;;;;;;4969604;28;20445;-77
2023/03/23 05:44:03;;;;;;;22.63;5.47;;;10.30;99.90;;;;;;5017892;28;20430;-79
2023/03/23 05:46:29;;;;;;;20.63;5.70;;;10.30;99.90;;;;;;5020280;28;20947;-80
2023/03/23 05:48:55;;;;;;;21.90;5.68;;;10.30;99.90;;;;;;4988540;28;20436;-79
2023/03/23 05:51:21;;;;;;;18.80;5.13;;;10.20;99.90;;;;;;4987057;28;20432;-80
2023/03/23 05:53:47;;;;;;;20.50;4.60;;;10.30;99.90;;;;;;4989509;28;20512;-77
2023/03/23 05:56:14;;;;;;;17.38;3.85;;;10.30;99.90;;;;;;4989910;28;20418;-78
2023/03/23 05:58:40;;;;;;;17.98;4.75;;;10.30;99.90;;;;;;4989670;28;20434;-78
2023/03/23 06:01:07;;;;;;;20.77;5.30;;;10.30;99.90;;;;;;5004786;28;20441;-78
2023/03/23 06:03:35;;;;;;;21.83;5.83;;;10.30;99.90;;;;;;5003486;28;20959;-77
2023/03/23 06:06:02;;;;;;;22.70;6.32;;;10.30;99.90;;;;;;5021793;28;20497;-78
2023/03/23 06:08:28;;;;;;;25.83;5.85;;;10.40;99.90;;;;;;5019389;28;20466;-78
2023/03/23 06:10:55;;;;;;;21.98;5.38;;;10.50;99.90;;;;;;4985816;28;20484;-77
2023/03/23 06:13:22;;;;;;;23.80;5.28;;;10.50;99.90;;;;;;4988027;28;20442;-77
2023/03/23 06:15:48;;;;;;;21.38;4.80;;;10.40;99.90;;;;;;4988617;28;20525;-77
2023/03/23 06:18:14;;;;;;;23.05;5.35;;;10.50;99.90;;;;;;4987384;28;20979;-78
2023/03/23 06:20:41;;;;;;;20.35;5.07;;;10.50;99.90;;;;;;4988344;28;20789;-76
2023/03/23 06:23:08;;;;;;;22.87;4.83;;;10.40;99.90;;;;;;4988048;28;20533;-78
2023/03/23 06:25:34;;;;;;;21.92;5.88;;;10.40;99.90;;;;;;4987848;28;20488;-78
2023/03/23 06:28:00;;;;;;;17.73;4.47;;;10.10;99.90;;;;;;4989244;28;20774;-77
2023/03/23 06:30:26;;;;;;;16.10;4.10;;;10.00;99.90;;;;;;4986293;28;20466;-77
2023/03/23 06:32:53;;;;;;;16.02;4.07;;;9.90;99.90;;;;;;4988363;28;20438;-78
2023/03/23 06:35:19;;;;;;;13.70;3.58;;;9.90;99.90;;;;;;4987210;28;20426;-78
2023/03/23 06:37:45;;;;;;;10.40;2.90;;;9.70;99.90;;;;;;5019321;28;20482;-77
2023/03/23 06:40:11;;;;;;;16.48;4.03;;;9.60;99.90;;;;;;4988698;28;20421;-77
2023/03/23 06:42:38;;;;;;;11.37;2.67;;;9.50;99.90;;;;;;4987529;28;20487;-77
2023/03/23 06:45:05;;;;;;;12.52;3.13;;;9.50;99.90;;;;;;4988411;28;20822;-79
2023/03/23 06:47:30;;;;;;;14.80;3.40;;;9.50;99.90;;;;;;4983926;28;20462;-77
2023/03/23 06:49:59;;;;;;;15.70;4.13;;;9.40;99.90;;;;;;4986716;28;20442;-77
2023/03/23 06:52:25;;;;;;;11.60;3.65;;;9.60;99.90;;;;;;4986803;28;20438;-76
2023/03/23 06:54:51;;;;;;;21.27;4.88;;;9.70;99.90;;;;;;4988704;28;20426;-77
2023/03/23 06:57:17;;;;;;;21.42;5.18;;;9.80;99.90;;;;;;4986635;28;20433;-77
2023/03/23 06:59:44;;;;;;;26.13;5.32;;;9.90;99.90;;;;;;4987802;28;20861;-79
2023/03/23 07:02:11;;;;;;;18.13;4.13;;;9.90;99.90;;;;;;4990852;28;20461;-80
2023/03/23 07:04:38;;;;;;;22.73;4.43;;;10.00;99.90;;;;;;4981880;28;20486;-81
2023/03/23 07:07:06;;;;;;;19.67;5.23;;;10.10;99.90;;;;;;4989878;28;20457;-80
2023/03/23 07:09:32;;;;;;;28.77;6.95;;;10.30;99.90;;;;;;5001903;28;20825;-81
2023/03/23 07:11:58;;;;;;;22.00;5.72;;;10.50;99.90;;;;;;5017046;28;20434;-80
2023/03/23 07:14:23;;;;;;;18.88;5.63;;;10.60;99.90;;;;;;4988101;28;20686;-78
2023/03/23 07:16:49;;;;;;;30.20;7.33;;;10.60;99.90;;;;;;4986558;28;20551;-79
2023/03/23 07:19:16;;;;;;;28.88;5.53;;;10.70;99.90;;;;;;4986811;28;20407;-78
2023/03/23 07:21:42;;;;;;;27.52;6.00;;;10.70;99.90;;;;;;4989747;28;20419;-81
2023/03/23 07:24:13;;;;;;;27.97;7.37;;;10.70;99.90;;;;;;4988044;28;20407;-81
2023/03/23 07:26:42;;;;;;;24.42;5.88;;;10.70;99.90;;;;;;4987461;28;20422;-78
2023/03/23 07:29:08;;;;;;;26.33;6.07;;;10.70;99.90;;;;;;4989360;28;20418;-79
2023/03/23 07:31:34;;;;;;;28.15;6.03;;;10.80;99.90;;;;;;4988802;28;20496;-82
2023/03/23 07:34:00;;;;;;;27.02;6.07;;;10.90;99.90;;;;;;5020490;28;20769;-80
2023/03/23 07:36:26;;;;;;;29.80;7.30;;;10.90;99.90;;;;;;4990165;28;20446;-80
2023/03/23 07:38:52;;;;;;;38.78;8.50;;;10.90;99.90;;;;;;4989195;28;20972;-80
2023/03/23 07:41:19;;;;;;;32.35;8.18;;;10.80;99.90;;;;;;4988993;28;20529;-80
2023/03/23 07:43:45;;;;;;;28.48;7.90;;;10.80;99.90;;;;;;4989936;28;20415;-79
2023/03/23 07:46:12;;;;;;;25.85;7.47;;;10.70;99.90;;;;;;5018767;28;20422;-80
2023/03/23 07:48:38;;;;;;;29.63;6.82;;;10.80;99.90;;;;;;4954842;28;20447;-78
2023/03/23 07:51:05;;;;;;;26.37;6.70;;;10.70;99.90;;;;;;4969829;28;20574;-80
2023/03/23 07:53:31;;;;;;;28.58;8.80;;;10.80;99.90;;;;;;4970022;28;20819;-81
2023/03/23 07:55:57;;;;;;;25.77;6.18;;;10.80;99.90;;;;;;4970148;28;20488;-80
2023/03/23 07:58:23;;;;;;;30.90;7.97;;;10.80;99.90;;;;;;4989405;28;21825;-79
2023/03/23 08:00:50;;;;;;;30.55;6.95;;;10.70;99.90;;;;;;5020155;28;20426;-80
2023/03/23 08:03:15;;;;;;;29.77;6.93;;;10.60;99.90;;;;;;4992093;28;20454;-80
2023/03/23 08:05:42;;;;;;;26.95;6.90;;;10.70;99.90;;;;;;4993492;28;20430;-83
2023/03/23 08:08:09;;;;;;;27.95;7.20;;;10.80;99.90;;;;;;4989808;28;20465;-81
2023/03/23 08:10:35;;;;;;;25.95;6.82;;;10.80;99.90;;;;;;4990926;28;20449;-81
2023/03/23 08:13:01;;;;;;;32.20;6.90;;;10.90;99.90;;;;;;5023223;28;20445;-81
2023/03/23 08:15:28;;;;;;;32.20;7.27;;;10.90;99.90;;;;;;4991618;28;20785;-81
2023/03/23 08:17:54;;;;;;;34.37;8.20;;;10.90;99.90;;;;;;4990336;28;20480;-81
2023/03/23 08:20:20;;;;;;;24.63;7.18;;;10.90;99.90;;;;;;4992450;28;20889;-78
2023/03/23 08:22:53;;;;;;;29.35;7.50;;;10.80;99.90;;;;;;4993164;28;20438;-79
2023/03/23 08:25:19;;;;;;;29.00;8.13;;;10.80;99.90;;;;;;5023548;28;20480;-79
2023/03/23 08:27:45;;;;;;;33.42;7.07;;;10.70;99.90;;;;;;4992228;28;20509;-79
2023/03/23 08:30:14;;;;;;;26.98;7.20;;;10.80;99.90;;;;;;4993536;28;20454;-78
2023/03/23 08:32:40;;;;;;;31.83;8.13;;;10.90;99.90;;;;;;4993384;28;20457;-80
2023/03/23 08:35:08;;;;;;;30.15;6.93;;;10.80;99.90;;;;;;4995759;28;20438;-79
2023/03/23 08:37:35;;;;;;;34.50;8.15;;;10.90;99.90;;;;;;5019377;28;20435;-80
2023/03/23 08:40:06;;;;;;;31.65;7.10;;;10.80;99.90;;;;;;4992189;28;20923;-79
2023/03/23 08:42:32;;;;;;;33.45;9.27;;;10.80;99.90;;;;;;4993411;28;20432;-78
2023/03/23 08:44:58;;;;;;;30.90;6.60;;;11.10;99.90;;;;;;5020049;28;20535;-78
2023/03/23 08:47:25;;;;;;;32.93;9.77;;;11.30;99.90;;;;;;4976964;28;20450;-79
2023/03/23 08:49:52;;;;;;;30.52;7.88;;;11.40;99.90;;;;;;4976869;28;20431;-78
2023/03/23 08:52:18;;;;;;;33.65;8.32;;;11.30;99.90;;;;;;4992473;28;20438;-79
2023/03/23 08:54:46;;;;;;;38.38;9.57;;;11.30;99.90;;;;;;4991499;28;20457;-78
2023/03/23 08:57:14;;;;;;;30.05;7.55;;;11.30;99.90;;;;;;4996347;28;20450;-77
2023/03/23 08:59:41;;;;;;;34.28;8.07;;;11.30;99.90;;;;;;4956620;28;20418;-78
2023/03/23 09:02:10;;;;;;;29.75;6.80;;;11.30;99.90;;;;;;5015160;28;20971;-77
2023/03/23 09:04:36;;;;;;;28.83;7.43;;;11.50;99.90;;;;;;4983822;28;20438;-77
2023/03/23 09:07:02;;;;;;;29.80;7.47;;;11.30;99.90;;;;;;4999513;28;20976;-80
2023/03/23 09:09:28;;;;;;;34.10;7.00;;;11.50;99.90;;;;;;4987343;28;20426;-78
2023/03/23 09:11:54;;;;;;;34.63;9.32;;;11.50;99.90;;;;;;4988837;28;20420;-80
2023/03/23 09:14:20;;;;;;;33.35;8.30;;;11.40;99.90;;;;;;4987670;28;20430;-77
2023/03/23 09:16:46;;;;;;;31.17;8.07;;;11.40;99.90;;;;;;4992802;28;20455;-79
2023/03/23 09:19:12;;;;;;;31.88;6.80;;;11.40;99.90;;;;;;4989464;28;20430;-77
2023/03/23 09:21:38;;;;;;;27.58;6.90;;;11.70;99.90;;;;;;4994557;28;20438;-77
2023/03/23 09:24:04;;;;;;;28.02;6.57;;;11.40;99.90;;;;;;4989775;28;20428;-77
2023/03/23 09:26:31;;;;;;;37.78;9.73;;;11.60;99.90;;;;;;4993610;28;20598;-78
2023/03/23 09:28:57;;;;;;;29.63;7.68;;;11.60;99.90;;;;;;5006372;28;20511;-79
2023/03/23 09:31:26;;;;;;;33.83;9.25;;;11.70;99.90;;;;;;4991160;28;20741;-78
2023/03/23 09:33:56;;;;;;;27.85;8.32;;;12.00;99.90;;;;;;4972932;28;20519;-79
2023/03/23 09:36:22;;;;;;;30.65;7.47;;;12.10;99.90;;;;;;4960264;28;20497;-77
2023/03/23 09:38:48;;;;;;;32.17;8.80;;;12.20;99.90;;;;;;4988093;28;20949;-80
2023/03/23 09:41:54;;;;;;;32.28;7.53;;;12.30;99.90;;;;;;4989894;28;20497;-78
2023/03/23 09:44:58;;;;;;;25.45;6.75;;;12.60;99.90;;;;;;5001660;28;20460;-79
2023/03/23 09:47:31;;;;;;;38.95;8.30;;;12.60;99.90;;;;;;4998379;28;20833;-79
2023/03/23 09:50:02;;;;;;;29.30;7.22;;;12.40;99.90;;;;;;4987563;28;20426;-80
2023/03/23 09:52:48;;;;;;;26.65;7.13;;;12.60;99.90;;;;;;5021544;28;20453;-79
2023/03/23 09:55:16;;;;;;;26.92;6.93;;;12.60;99.90;;;;;;4982344;28;20422;-77
2023/03/23 09:57:54;;;;;;;26.58;7.25;;;12.40;99.90;;;;;;4972069;28;20484;-75
2023/03/23 10:00:35;;;;;;;28.10;8.73;;;12.40;99.90;;;;;;4983480;28;20442;-82
2023/03/23 10:03:17;;;;;;;23.58;7.07;;;12.40;99.90;;;;;;4979546;28;20426;-79
2023/03/23 10:05:47;;;;;;;26.63;6.85;;;12.60;99.90;;;;;;4987180;28;20819;-82
2023/03/23 10:08:26;;;;;;;28.20;7.70;;;12.20;99.90;;;;;;5017339;28;20956;-76
2023/03/23 10:11:02;;;;;;;29.15;5.63;;;11.90;99.90;;;;;;4979141;28;20844;-76
2023/03/23 10:13:40;;;;;;;23.40;5.93;;;11.70;99.90;;;;;;4971737;28;20436;-76
2023/03/23 10:16:17;;;;;;;27.00;6.95;;;11.80;99.90;;;;;;5005777;28;20846;-74
2023/03/23 10:19:00;;;;;;;26.65;7.30;;;11.70;99.90;;;;;;4989385;28;20485;-77
2023/03/23 10:21:30;;;;;;;29.05;7.13;;;11.70;99.90;;;;;;4997987;28;20436;-77
2023/03/23 10:24:04;;;;;;;29.48;7.13;;;11.60;99.90;;;;;;4990897;28;20842;-80
2023/03/23 10:26:56;;;;;;;30.65;7.28;;;11.80;99.90;;;;;;5010246;28;21072;-77
2023/03/23 10:29:26;;;;;;;25.67;5.82;;;11.80;99.90;;;;;;4979687;28;20430;-78
2023/03/23 10:32:01;;;;;;;22.73;6.03;;;11.80;99.90;;;;;;4970887;28;20459;-77
2023/03/23 10:34:41;;;;;;;26.98;6.05;;;11.90;99.90;;;;;;4985946;28;20524;-79
2023/03/23 10:37:28;;;;;;;23.73;6.18;;;12.10;99.90;;;;;;5008016;28;20427;-78
2023/03/23 10:39:56;;;;;;;30.50;6.95;;;12.30;99.90;;;;;;4953491;28;20467;-76
2023/03/23 10:42:26;;;;;;;25.00;6.22;;;12.60;99.90;;;;;;4983799;28;20898;-78
2023/03/23 10:44:52;;;;;;;24.73;6.57;;;12.80;99.90;;;;;;4992217;28;20437;-77
2023/03/23 10:47:18;;;;;;;30.75;7.45;;;13.10;99.90;;;;;;4984921;28;20427;-78
2023/03/23 10:49:54;;;;;;;27.70;7.35;;;13.30;99.90;;;;;;4989013;28;20569;-79
2023/03/23 10:52:29;;;;;;;23.05;5.40;;;13.70;99.90;;;;;;4977427;28;20440;-80
2023/03/23 10:55:20;;;;;;;21.30;5.32;;;13.90;99.90;;;;;;4981685;28;20501;-78
2023/03/23 10:58:09;;;;;;;19.42;4.63;;;14.00;99.90;;;;;;4980035;28;20522;-79
2023/03/23 11:00:42;;;;;;;21.88;4.88;;;14.20;99.90;;;;;;4995212;28;20473;-77
2023/03/23 11:03:14;;;;;;;19.42;5.43;;;14.10;99.90;;;;;;4976547;28;20441;-77
2023/03/23 11:06:08;;;;;;;20.55;5.60;;;13.90;99.90;;;;;;4989501;28;20492;-77
2023/03/23 11:08:53;;;;;;;22.85;6.15;;;14.00;99.90;;;;;;4973622;28;20465;-77
2023/03/23 11:11:28;;;;;;;19.60;5.43;;;14.40;99.90;;;;;;4994844;28;20417;-77
2023/03/23 11:14:12;;;;;;;17.15;4.40;;;14.40;99.90;;;;;;4973308;28;20440;-78
2023/03/23 11:16:44;;;;;;;20.02;5.35;;;13.80;99.90;;;;;;5007939;28;20468;-77
2023/03/23 11:19:25;;;;;;;21.23;5.30;;;13.50;99.90;;;;;;4990410;28;20410;-77
2023/03/23 11:21:53;;;;;;;20.63;6.22;;;13.70;99.90;;;;;;4978238;28;20434;-77
2023/03/23 11:24:23;;;;;;;13.43;3.80;;;13.80;99.90;;;;;;4989041;28;20488;-76
2023/03/23 11:26:50;;;;;;;15.93;4.80;;;13.80;99.90;;;;;;5005615;28;20488;-78
2023/03/23 11:29:19;;;;;;;14.48;4.65;;;14.10;99.90;;;;;;4991358;28;20422;-78
2023/03/23 11:31:52;;;;;;;14.55;3.80;;;14.40;99.90;;;;;;4972243;28;20447;-78
2023/03/23 11:34:20;;;;;;;15.85;4.63;;;14.60;99.90;;;;;;4954934;28;20876;-77
2023/03/23 11:36:58;;;;;;;16.45;4.45;;;14.50;99.90;;;;;;4990524;28;20434;-77
2023/03/23 11:39:45;;;;;;;18.67;4.57;;;14.40;99.90;;;;;;5022505;28;21055;-78
2023/03/23 11:42:18;;;;;;;18.80;5.57;;;14.60;99.90;;;;;;4986090;28;21015;-77
2023/03/23 11:44:45;;;;;;;18.53;4.57;;;14.70;99.90;;;;;;4994427;28;20917;-79
2023/03/23 11:47:39;;;;;;;17.35;4.55;;;14.70;99.90;;;;;;4974714;28;20493;-79
2023/03/23 11:50:14;;;;;;;14.35;4.05;;;14.70;99.90;;;;;;4992426;28;20446;-80
2023/03/23 11:52:46;;;;;;;22.67;4.65;;;14.60;99.90;;;;;;4985298;28;20513;-79
2023/03/23 11:55:55;;;;;;;15.23;3.72;;;14.70;99.90;;;;;;5022240;28;20955;-78
2023/03/23 11:58:21;;;;;;;19.53;4.53;;;14.70;99.90;;;;;;4984572;28;20422;-84
2023/03/23 12:01:09;;;;;;;16.75;4.22;;;14.70;99.90;;;;;;4991547;28;20414;-77
2023/03/23 12:04:04;;;;;;;12.77;4.03;;;14.70;99.90;;;;;;5007926;28;20448;-77
2023/03/23 12:07:05;;;;;;;19.20;5.32;;;14.70;99.90;;;;;;5005071;28;20844;-78
2023/03/23 12:09:41;;;;;;;15.70;4.30;;;14.60;99.90;;;;;;4972315;28;20788;-77
2023/03/23 12:12:16;;;;;;;18.40;4.97;;;14.60;99.90;;;;;;4996268;28;20821;-73
2023/03/23 12:15:19;;;;;;;17.10;4.70;;;15.00;99.90;;;;;;4988496;28;20434;-73
2023/03/23 12:18:06;;;;;;;18.73;4.97;;;15.10;99.90;;;;;;4974012;28;20468;-76
2023/03/23 12:21:10;;;;;;;12.50;3.90;;;14.70;99.90;;;;;;4980846;28;20501;-75
2023/03/23 12:23:46;;;;;;;17.73;5.10;;;14.40;99.90;;;;;;4979863;28;20515;-77
2023/03/23 12:26:30;;;;;;;17.98;5.50;;;14.30;99.90;;;;;;5020302;28;20422;-78
2023/03/23 12:29:14;;;;;;;14.88;3.65;;;14.40;99.90;;;;;;5004725;28;20844;-77
2023/03/23 12:32:18;;;;;;;18.30;5.50;;;14.50;99.90;;;;;;4992384;28;20434;-79
2023/03/23 12:35:02;;;;;;;17.55;3.90;;;14.80;99.90;;;;;;5023093;28;20438;-77
2023/03/23 12:38:00;;;;;;;17.98;5.10;;;14.70;99.90;;;;;;5018084;28;20442;-77
2023/03/23 12:40:55;;;;;;;13.20;3.90;;;14.30;99.90;;;;;;4995401;28;20473;-78
2023/03/23 12:43:30;;;;;;;17.08;3.83;;;14.30;99.90;;;;;;4981630;28;21010;-77
2023/03/23 12:46:04;;;;;;;17.92;4.90;;;14.10;99.90;;;;;;4976376;28;20440;-77
2023/03/23 12:48:39;;;;;;;14.50;3.50;;;14.10;99.90;;;;;;5026179;28;20456;-77
2023/03/23 12:51:12;;;;;;;16.10;4.13;;;14.10;99.90;;;;;;4975556;28;20408;-77
2023/03/23 12:53:53;;;;;;;15.43;4.15;;;14.10;99.90;;;;;;4982296;28;20488;-79
2023/03/23 12:56:37;;;;;;;20.27;5.00;;;14.10;99.90;;;;;;4992530;28;20449;-79
2023/03/23 12:59:15;;;;;;;17.23;5.45;;;13.70;99.90;;;;;;4982794;28;20424;-77
2023/03/23 13:01:48;;;;;;;15.37;4.03;;;13.70;99.90;;;;;;4990024;28;20424;-78